Time;durP1;ratioP1;P1;durP2;ratioP2;P2;SDS_P1;SDS_P2;PMS_P1;PMS_P2;Temp;Humidity;BMP_temperature;BMP_pressure;BME280_temperature;BME280_humidity;BME280_pressure;Samples;Min_cycle;Max_cycle;Signal;HPM_P1;HPM_P2
2022/04/09 00:00:48;;;;;;;2.15;1.42;;;4.80;95.50;;;;;;610466;236;26616;-69
2022/04/09 00:03:15;;;;;;;1.70;1.60;;;4.80;95.50;;;;;;610448;236;26591;-69
2022/04/09 00:05:42;;;;;;;1.45;1.33;;;4.80;95.50;;;;;;610432;236;26616;-69
2022/04/09 00:08:10;;;;;;;3.37;1.60;;;4.80;95.50;;;;;;610158;235;26866;-69
2022/04/09 00:10:37;;;;;;;2.80;1.60;;;4.80;95.60;;;;;;610202;235;26625;-69
2022/04/09 00:13:04;;;;;;;1.87;1.70;;;4.80;95.70;;;;;;610185;236;26617;-69
2022/04/09 00:15:32;;;;;;;1.90;1.73;;;4.70;95.80;;;;;;610093;236;26653;-69
2022/04/09 00:18:00;;;;;;;1.40;1.30;;;4.70;95.80;;;;;;610175;236;26634;-69
2022/04/09 00:20:27;;;;;;;2.00;1.55;;;4.70;95.80;;;;;;610196;236;26849;-70
2022/04/09 00:22:54;;;;;;;2.17;1.62;;;4.60;95.90;;;;;;610167;236;26623;-70
2022/04/09 00:25:23;;;;;;;2.50;1.77;;;4.60;96.10;;;;;;609917;235;26834;-70
2022/04/09 00:27:49;;;;;;;1.30;1.20;;;4.60;96.10;;;;;;609821;231;26640;-70
2022/04/09 00:30:16;;;;;;;1.87;1.37;;;4.50;96.20;;;;;;609879;235;26552;-70
2022/04/09 00:32:44;;;;;;;2.08;1.40;;;4.50;96.40;;;;;;609911;235;26577;-71
2022/04/09 00:35:12;;;;;;;1.15;1.12;;;4.50;96.50;;;;;;609908;236;26615;-71
2022/04/09 00:37:42;;;;;;;3.08;1.75;;;4.50;96.40;;;;;;609913;235;26588;-70
2022/04/09 00:40:10;;;;;;;2.15;1.30;;;4.50;96.40;;;;;;609956;235;26843;-71
2022/04/09 00:42:37;;;;;;;2.08;1.37;;;4.40;96.40;;;;;;610263;236;26564;-71
2022/04/09 00:45:05;;;;;;;3.12;1.37;;;4.40;96.60;;;;;;610219;231;26809;-71
2022/04/09 00:47:32;;;;;;;1.58;1.40;;;4.40;96.50;;;;;;609955;235;26852;-70
2022/04/09 00:50:00;;;;;;;2.72;1.50;;;4.40;96.50;;;;;;609940;235;26815;-70
2022/04/09 00:52:28;;;;;;;2.00;1.70;;;4.40;96.60;;;;;;609869;236;26553;-70
2022/04/09 00:54:55;;;;;;;2.08;1.40;;;4.40;96.60;;;;;;609870;236;26576;-69
2022/04/09 00:57:25;;;;;;;2.35;1.42;;;4.40;96.60;;;;;;609887;235;26573;-69
2022/04/09 00:59:50;;;;;;;1.70;1.55;;;4.50;96.60;;;;;;610234;233;26572;-69
2022/04/09 01:02:17;;;;;;;1.70;1.60;;;4.40;96.60;;;;;;611375;235;26834;-69
2022/04/09 01:04:44;;;;;;;2.15;1.50;;;4.40;96.40;;;;;;611017;235;26634;-69
2022/04/09 01:07:11;;;;;;;2.03;1.77;;;4.30;96.50;;;;;;610844;235;26599;-69
2022/04/09 01:09:39;;;;;;;1.50;1.40;;;4.30;96.50;;;;;;610679;235;26563;-69
2022/04/09 01:12:07;;;;;;;1.58;1.45;;;4.30;96.60;;;;;;610473;236;26962;-69
2022/04/09 01:14:34;;;;;;;1.48;1.37;;;4.30;96.70;;;;;;610529;236;26820;-69
2022/04/09 01:17:01;;;;;;;2.50;1.50;;;4.20;96.60;;;;;;610448;232;26605;-69
2022/04/09 01:19:29;;;;;;;2.33;1.65;;;4.20;96.50;;;;;;610208;235;26854;-69
2022/04/09 01:22:00;;;;;;;1.62;1.52;;;4.20;96.50;;;;;;610235;235;26604;-69
2022/04/09 01:24:28;;;;;;;2.58;1.50;;;4.20;96.60;;;;;;610088;235;26645;-69
2022/04/09 01:26:56;;;;;;;2.55;1.33;;;4.20;96.60;;;;;;610192;236;26635;-69
2022/04/09 01:29:23;;;;;;;3.87;1.52;;;4.20;96.60;;;;;;610219;235;26635;-69
2022/04/09 01:31:51;;;;;;;2.05;1.30;;;4.20;96.60;;;;;;610222;236;26650;-69
2022/04/09 01:34:19;;;;;;;2.42;1.50;;;4.20;96.60;;;;;;610150;236;26605;-69
2022/04/09 01:36:47;;;;;;;2.25;1.40;;;4.20;96.60;;;;;;610037;235;26844;-69
2022/04/09 01:39:17;;;;;;;1.80;1.45;;;4.20;96.70;;;;;;609857;236;26605;-69
2022/04/09 01:41:41;;;;;;;2.78;1.40;;;4.10;96.80;;;;;;609881;235;26850;-70
2022/04/09 01:44:09;;;;;;;1.67;1.25;;;4.10;96.80;;;;;;609878;236;26589;-69
2022/04/09 01:46:37;;;;;;;1.87;1.30;;;4.10;96.80;;;;;;609859;235;26601;-69
2022/04/09 01:49:04;;;;;;;3.40;1.65;;;4.10;96.90;;;;;;609926;236;26596;-69
2022/04/09 01:51:31;;;;;;;2.12;1.60;;;4.10;97.00;;;;;;610193;236;26800;-69
2022/04/09 01:53:58;;;;;;;2.03;1.50;;;4.10;96.90;;;;;;610236;236;26557;-69
2022/04/09 01:56:25;;;;;;;3.37;1.60;;;4.10;97.10;;;;;;610244;236;26891;-69
2022/04/09 01:58:53;;;;;;;3.75;1.23;;;4.10;97.10;;;;;;610246;235;26563;-69
2022/04/09 02:01:21;;;;;;;3.08;1.58;;;4.10;97.00;;;;;;610263;236;26569;-69
2022/04/09 02:03:48;;;;;;;2.62;1.50;;;4.00;97.00;;;;;;610230;236;26584;-69
2022/04/09 02:06:15;;;;;;;1.85;1.50;;;4.10;97.10;;;;;;610236;235;26576;-67
2022/04/09 02:08:43;;;;;;;1.40;1.30;;;4.00;97.10;;;;;;610245;235;27035;-66
2022/04/09 02:11:10;;;;;;;3.80;1.20;;;4.10;97.20;;;;;;610150;233;26569;-65
2022/04/09 02:13:38;;;;;;;2.35;1.70;;;4.00;97.20;;;;;;611441;235;26972;-66
2022/04/09 02:16:05;;;;;;;2.80;1.65;;;4.10;97.40;;;;;;607378;234;26659;-66
2022/04/09 02:18:32;;;;;;;1.30;1.15;;;4.10;97.40;;;;;;605477;232;26838;-66
2022/04/09 02:20:59;;;;;;;1.65;1.55;;;4.00;97.30;;;;;;605340;235;26582;-66
2022/04/09 02:23:26;;;;;;;2.58;1.62;;;4.00;97.50;;;;;;605345;235;26589;-66
2022/04/09 02:25:54;;;;;;;3.17;1.75;;;4.00;97.60;;;;;;605080;237;26659;-66
2022/04/09 02:28:22;;;;;;;3.25;1.55;;;4.00;97.60;;;;;;605257;237;26636;-66
2022/04/09 02:30:49;;;;;;;3.08;1.70;;;4.00;97.70;;;;;;607352;236;26865;-67
2022/04/09 02:33:17;;;;;;;2.22;1.50;;;3.90;97.90;;;;;;606084;236;26601;-66
2022/04/09 02:35:45;;;;;;;3.65;1.80;;;3.80;97.90;;;;;;601812;239;26624;-66
2022/04/09 02:38:12;;;;;;;2.20;1.45;;;3.90;98.00;;;;;;601821;238;26586;-66
2022/04/09 02:40:39;;;;;;;1.95;1.30;;;3.80;98.00;;;;;;601855;237;26586;-66
2022/04/09 02:43:08;;;;;;;2.47;1.42;;;3.80;98.20;;;;;;601836;237;26833;-66
2022/04/09 02:45:34;;;;;;;2.70;1.40;;;3.80;98.30;;;;;;601696;239;26597;-67
2022/04/09 02:48:01;;;;;;;1.80;1.50;;;3.70;98.40;;;;;;601651;237;26840;-67
2022/04/09 02:50:29;;;;;;;3.75;1.60;;;3.70;98.80;;;;;;601523;239;26862;-67
2022/04/09 02:52:57;;;;;;;3.92;1.62;;;3.60;98.80;;;;;;602544;235;26630;-67
2022/04/09 02:55:25;;;;;;;1.42;1.30;;;3.60;99.10;;;;;;603161;235;26631;-67
2022/04/09 02:57:52;;;;;;;1.50;1.40;;;3.60;99.10;;;;;;601560;238;26846;-67
2022/04/09 03:00:19;;;;;;;1.73;1.45;;;3.50;99.30;;;;;;601543;239;26650;-66
2022/04/09 03:02:47;;;;;;;2.40;1.60;;;3.50;99.40;;;;;;601595;238;26938;-66
2022/04/09 03:05:14;;;;;;;2.60;1.70;;;3.50;99.60;;;;;;604267;238;26597;-67
2022/04/09 03:07:42;;;;;;;2.08;1.45;;;3.40;99.90;;;;;;604629;238;26598;-66
2022/04/09 03:10:10;;;;;;;3.87;1.60;;;3.40;99.90;;;;;;604588;238;26816;-65
2022/04/09 03:12:37;;;;;;;2.55;1.73;;;3.40;99.90;;;;;;604319;237;26582;-65
2022/04/09 03:15:04;;;;;;;2.22;1.30;;;3.40;99.90;;;;;;604594;236;26808;-66
2022/04/09 03:17:32;;;;;;;3.60;1.40;;;3.30;99.90;;;;;;604264;235;26684;-65
2022/04/09 03:19:59;;;;;;;1.75;1.30;;;3.30;99.90;;;;;;605916;235;26871;-64
2022/04/09 03:22:28;;;;;;;1.50;1.40;;;3.20;99.90;;;;;;604090;234;26644;-65
2022/04/09 03:24:53;;;;;;;3.87;1.30;;;3.20;99.90;;;;;;604845;233;26864;-64
2022/04/09 03:27:21;;;;;;;3.30;1.23;;;3.20;99.90;;;;;;606532;234;26642;-65
2022/04/09 03:29:49;;;;;;;2.33;1.50;;;3.20;99.90;;;;;;605103;235;26591;-65
2022/04/09 03:32:16;;;;;;;1.98;1.42;;;3.20;99.90;;;;;;605723;234;26666;-65
2022/04/09 03:34:44;;;;;;;3.78;1.40;;;3.10;99.90;;;;;;605478;236;26568;-65
2022/04/09 03:37:11;;;;;;;1.05;0.90;;;3.10;99.90;;;;;;604421;236;26579;-65
2022/04/09 03:39:38;;;;;;;3.40;1.25;;;3.10;99.90;;;;;;607368;236;26580;-65
2022/04/09 03:42:06;;;;;;;1.77;1.35;;;3.10;99.90;;;;;;610173;236;26962;-66
2022/04/09 03:44:33;;;;;;;1.70;1.10;;;3.10;99.90;;;;;;610117;235;26873;-65
2022/04/09 03:47:01;;;;;;;2.58;1.08;;;3.00;99.90;;;;;;610160;236;26655;-64
2022/04/09 03:49:29;;;;;;;2.83;1.10;;;3.00;99.90;;;;;;601820;237;26574;-65
2022/04/09 03:51:56;;;;;;;2.25;1.02;;;3.00;99.90;;;;;;601873;237;26668;-66
2022/04/09 03:54:25;;;;;;;3.62;1.33;;;3.00;99.90;;;;;;601813;237;26827;-65
2022/04/09 03:56:52;;;;;;;1.92;1.33;;;2.90;99.90;;;;;;601829;237;26823;-67
2022/04/09 03:59:20;;;;;;;2.83;1.30;;;2.90;99.90;;;;;;601671;237;26606;-66
2022/04/09 04:01:49;;;;;;;2.70;1.50;;;2.90;99.90;;;;;;601546;237;26625;-66
2022/04/09 04:04:15;;;;;;;2.97;1.00;;;2.90;99.90;;;;;;601448;239;26641;-66
2022/04/09 04:06:42;;;;;;;2.53;1.58;;;2.90;99.90;;;;;;601501;239;26650;-66
2022/04/09 04:09:09;;;;;;;2.92;1.40;;;2.90;99.90;;;;;;601538;239;26863;-66
2022/04/09 04:11:36;;;;;;;1.42;1.30;;;2.80;99.90;;;;;;602613;238;26661;-65
2022/04/09 04:14:04;;;;;;;4.62;1.73;;;2.90;99.90;;;;;;604286;235;26598;-65
2022/04/09 04:16:32;;;;;;;5.82;1.50;;;2.90;99.90;;;;;;604138;235;26613;-65
2022/04/09 04:18:59;;;;;;;2.62;1.40;;;2.90;99.90;;;;;;602543;238;26602;-66
2022/04/09 04:21:27;;;;;;;1.20;1.10;;;2.80;99.90;;;;;;604631;237;26583;-66
2022/04/09 04:23:54;;;;;;;2.60;1.60;;;2.80;99.90;;;;;;602366;237;26865;-65
2022/04/09 04:26:21;;;;;;;3.17;1.35;;;2.80;99.90;;;;;;604207;236;26617;-65
2022/04/09 04:28:48;;;;;;;4.93;1.50;;;2.90;99.90;;;;;;605940;236;26994;-65
2022/04/09 04:31:16;;;;;;;2.83;1.30;;;3.20;99.90;;;;;;606200;236;26602;-65
2022/04/09 04:33:44;;;;;;;1.87;1.23;;;3.20;99.90;;;;;;603429;238;26597;-65
2022/04/09 04:36:12;;;;;;;1.30;1.20;;;3.20;99.90;;;;;;610421;234;26660;-66
2022/04/09 04:38:39;;;;;;;3.92;1.30;;;3.20;99.90;;;;;;609415;234;26571;-66
2022/04/09 04:41:06;;;;;;;2.95;1.23;;;3.20;99.90;;;;;;603517;237;26594;-65
2022/04/09 04:43:33;;;;;;;2.17;1.20;;;3.20;99.90;;;;;;608375;235;26667;-65
2022/04/09 04:46:01;;;;;;;3.05;1.42;;;3.10;99.90;;;;;;606423;236;26894;-64
2022/04/09 04:48:28;;;;;;;3.22;1.20;;;3.00;99.90;;;;;;602247;236;26588;-65
2022/04/09 04:50:55;;;;;;;2.75;1.40;;;2.90;99.90;;;;;;602971;238;26800;-65
2022/04/09 04:53:23;;;;;;;2.67;1.45;;;2.90;99.90;;;;;;607530;236;26651;-65
2022/04/09 04:55:51;;;;;;;2.60;1.50;;;2.80;99.90;;;;;;611823;235;26611;-65
2022/04/09 04:58:19;;;;;;;2.12;1.30;;;2.80;99.90;;;;;;603274;235;26968;-65
2022/04/09 05:00:45;;;;;;;1.27;1.17;;;2.80;99.90;;;;;;604816;238;26579;-64
2022/04/09 05:03:12;;;;;;;3.60;1.48;;;2.90;99.90;;;;;;604896;237;26828;-64
2022/04/09 05:05:40;;;;;;;3.90;1.48;;;2.80;99.90;;;;;;602992;237;26601;-64
2022/04/09 05:08:09;;;;;;;2.80;1.40;;;2.90;99.90;;;;;;604245;238;26980;-65
2022/04/09 05:10:35;;;;;;;4.28;1.50;;;2.90;99.90;;;;;;601707;237;26586;-65
2022/04/09 05:13:02;;;;;;;1.60;1.30;;;2.90;99.90;;;;;;604449;236;26650;-64
2022/04/09 05:15:30;;;;;;;2.50;1.60;;;2.90;99.90;;;;;;605262;235;26609;-64
2022/04/09 05:17:57;;;;;;;2.08;1.20;;;2.90;99.90;;;;;;607587;236;26659;-64
2022/04/09 05:20:25;;;;;;;2.90;1.70;;;2.90;99.90;;;;;;602145;236;26858;-64
2022/04/09 05:22:52;;;;;;;3.37;1.48;;;2.90;99.90;;;;;;603824;236;26645;-64
2022/04/09 05:25:20;;;;;;;2.65;1.48;;;2.90;99.90;;;;;;607295;235;26921;-66
2022/04/09 05:27:49;;;;;;;3.03;1.60;;;3.00;99.90;;;;;;602564;237;26648;-65
2022/04/09 05:30:16;;;;;;;3.30;1.50;;;3.00;99.90;;;;;;604053;238;26785;-65
2022/04/09 05:32:44;;;;;;;2.35;1.30;;;3.00;99.90;;;;;;601517;237;26641;-65
2022/04/09 05:35:12;;;;;;;2.53;1.35;;;3.10;99.90;;;;;;602727;237;26663;-65
2022/04/09 05:37:39;;;;;;;2.05;1.60;;;3.10;99.90;;;;;;604548;238;26599;-65
2022/04/09 05:40:07;;;;;;;3.55;1.65;;;3.10;99.90;;;;;;604532;236;26550;-65
2022/04/09 05:42:34;;;;;;;2.47;1.33;;;3.10;99.90;;;;;;608494;236;26608;-65
2022/04/09 05:45:02;;;;;;;2.55;1.40;;;3.10;99.90;;;;;;604334;236;26900;-65
2022/04/09 05:47:29;;;;;;;2.17;1.27;;;3.20;99.90;;;;;;606712;233;26970;-64
2022/04/09 05:49:57;;;;;;;2.50;1.48;;;3.20;99.90;;;;;;602654;238;26545;-65
2022/04/09 05:52:24;;;;;;;4.40;1.50;;;3.30;99.90;;;;;;604860;237;26563;-65
2022/04/09 05:54:53;;;;;;;1.42;1.30;;;3.40;99.90;;;;;;602324;237;26600;-65
2022/04/09 05:57:19;;;;;;;2.67;1.50;;;3.30;99.90;;;;;;606028;236;26915;-66
2022/04/09 05:59:47;;;;;;;2.53;1.62;;;3.50;99.90;;;;;;604996;236;26557;-66
2022/04/09 06:02:14;;;;;;;2.78;1.48;;;3.60;99.90;;;;;;611165;235;26886;-65
2022/04/09 06:04:41;;;;;;;2.33;1.45;;;4.10;99.90;;;;;;606092;236;26600;-66
2022/04/09 06:07:09;;;;;;;3.28;1.30;;;4.10;99.90;;;;;;606843;235;26609;-66
2022/04/09 06:09:36;;;;;;;1.30;1.12;;;4.20;99.90;;;;;;606572;236;26578;-64
2022/04/09 06:12:06;;;;;;;1.65;1.40;;;4.20;99.90;;;;;;606052;235;26815;-64
2022/04/09 06:14:31;;;;;;;1.67;1.50;;;4.40;99.90;;;;;;608769;236;26663;-64
2022/04/09 06:16:58;;;;;;;4.80;1.55;;;4.60;99.40;;;;;;602806;238;26860;-65
2022/04/09 06:19:27;;;;;;;2.35;1.40;;;4.70;98.90;;;;;;603289;238;26600;-64
2022/04/09 06:21:53;;;;;;;1.92;1.58;;;4.80;98.80;;;;;;609275;235;26648;-65
2022/04/09 06:24:21;;;;;;;2.62;1.35;;;4.90;98.40;;;;;;609756;234;26580;-64
2022/04/09 06:26:48;;;;;;;2.15;1.45;;;4.90;98.40;;;;;;603771;234;26609;-65
2022/04/09 06:29:15;;;;;;;2.35;1.65;;;4.70;98.40;;;;;;602840;237;26650;-65
2022/04/09 06:31:47;;;;;;;2.65;1.45;;;4.70;98.30;;;;;;602620;237;26855;-65
2022/04/09 06:34:10;;;;;;;1.75;1.37;;;4.70;98.20;;;;;;603588;236;26584;-64
2022/04/09 06:36:37;;;;;;;2.67;1.60;;;4.70;98.20;;;;;;611954;235;26649;-65
2022/04/09 06:39:05;;;;;;;1.37;1.27;;;4.50;98.30;;;;;;609841;236;26594;-65
2022/04/09 06:41:33;;;;;;;1.58;1.40;;;4.50;98.30;;;;;;609813;236;26631;-65
2022/04/09 06:44:01;;;;;;;1.85;1.25;;;4.90;97.70;;;;;;603516;235;26891;-65
2022/04/09 06:46:28;;;;;;;1.27;1.17;;;4.90;97.80;;;;;;608427;236;26852;-66
2022/04/09 06:48:55;;;;;;;3.25;1.37;;;5.10;97.40;;;;;;602398;238;26649;-65
2022/04/09 06:51:22;;;;;;;2.25;1.40;;;4.90;97.20;;;;;;603050;238;27362;-66
2022/04/09 06:53:50;;;;;;;3.15;1.70;;;5.00;97.00;;;;;;601512;239;26601;-65
2022/04/09 06:56:18;;;;;;;3.05;1.73;;;5.00;97.00;;;;;;604139;238;26639;-65
2022/04/09 06:58:45;;;;;;;2.53;1.20;;;5.00;96.80;;;;;;604977;236;26600;-65
2022/04/09 07:01:13;;;;;;;2.03;1.67;;;5.10;96.50;;;;;;603991;236;26642;-66
2022/04/09 07:03:40;;;;;;;2.55;1.30;;;5.30;96.00;;;;;;605477;236;26843;-65
2022/04/09 07:06:07;;;;;;;2.35;1.27;;;5.50;96.00;;;;;;609626;235;26639;-65
2022/04/09 07:08:34;;;;;;;1.17;1.12;;;5.60;95.60;;;;;;611141;234;26618;-65
2022/04/09 07:11:02;;;;;;;2.72;1.58;;;6.00;94.60;;;;;;602093;238;26580;-65
2022/04/09 07:13:31;;;;;;;3.17;1.60;;;6.00;94.10;;;;;;606571;236;26587;-65
2022/04/09 07:15:58;;;;;;;1.42;1.30;;;6.00;94.10;;;;;;610287;236;26911;-65
2022/04/09 07:18:25;;;;;;;1.70;1.48;;;6.20;93.80;;;;;;602678;236;26590;-65
2022/04/09 07:20:52;;;;;;;3.50;1.35;;;6.20;93.90;;;;;;604879;237;26813;-65
2022/04/09 07:23:20;;;;;;;1.73;1.45;;;6.60;92.90;;;;;;604893;237;26586;-65
2022/04/09 07:25:49;;;;;;;3.30;1.27;;;6.30;93.20;;;;;;604774;233;26615;-65
2022/04/09 07:28:15;;;;;;;3.55;1.75;;;6.30;93.20;;;;;;604827;238;26579;-65
2022/04/09 07:30:43;;;;;;;2.58;1.80;;;6.10;93.20;;;;;;604860;238;26586;-64
2022/04/09 07:33:10;;;;;;;2.90;1.48;;;6.20;93.40;;;;;;604829;237;26829;-65
2022/04/09 07:35:37;;;;;;;3.33;1.50;;;6.30;93.10;;;;;;602722;238;26600;-65
2022/04/09 07:38:07;;;;;;;2.62;1.40;;;6.20;93.30;;;;;;603921;237;26751;-65
2022/04/09 07:40:32;;;;;;;2.17;1.30;;;6.30;92.70;;;;;;601693;236;26609;-66
2022/04/09 07:42:59;;;;;;;1.67;1.37;;;6.60;92.60;;;;;;601702;239;26644;-65
2022/04/09 07:45:26;;;;;;;4.12;1.55;;;6.50;92.20;;;;;;605704;235;26664;-65
2022/04/09 07:47:54;;;;;;;2.47;1.70;;;6.50;92.70;;;;;;606200;235;26545;-65
2022/04/09 07:50:21;;;;;;;2.05;1.40;;;6.60;92.10;;;;;;601736;237;27272;-66
2022/04/09 07:52:48;;;;;;;3.55;1.50;;;6.60;92.30;;;;;;602342;237;26639;-65
2022/04/09 07:55:16;;;;;;;2.40;1.65;;;6.80;92.20;;;;;;603153;238;26577;-65
2022/04/09 07:57:44;;;;;;;2.60;1.60;;;6.80;91.10;;;;;;601318;239;26636;-66
2022/04/09 08:00:12;;;;;;;2.10;1.40;;;6.80;91.10;;;;;;601520;237;26601;-66
2022/04/09 08:02:39;;;;;;;2.37;1.23;;;6.90;91.10;;;;;;601525;239;26643;-66
2022/04/09 08:05:10;;;;;;;2.42;1.48;;;7.20;90.70;;;;;;604610;236;26657;-66
2022/04/09 08:07:34;;;;;;;4.05;1.60;;;7.20;90.70;;;;;;604876;236;26853;-66
2022/04/09 08:10:02;;;;;;;3.00;1.52;;;7.30;89.50;;;;;;604806;236;26549;-66
2022/04/09 08:12:30;;;;;;;3.47;1.40;;;7.20;89.40;;;;;;605487;236;26589;-66
2022/04/09 08:14:57;;;;;;;2.53;1.62;;;7.00;89.10;;;;;;603301;237;26605;-65
2022/04/09 08:17:24;;;;;;;2.80;1.52;;;7.20;89.40;;;;;;608015;233;26650;-66
2022/04/09 08:19:51;;;;;;;3.95;1.55;;;7.40;87.90;;;;;;610439;235;26803;-66
2022/04/09 08:22:20;;;;;;;1.90;1.20;;;7.30;88.20;;;;;;603642;235;26582;-66
2022/04/09 08:24:46;;;;;;;3.70;1.65;;;7.40;86.80;;;;;;610999;235;26629;-64
2022/04/09 08:27:14;;;;;;;2.92;1.50;;;7.20;84.80;;;;;;607333;234;26658;-64
2022/04/09 08:29:42;;;;;;;2.12;1.30;;;7.50;85.30;;;;;;604975;236;26586;-64
2022/04/09 08:32:09;;;;;;;3.65;1.40;;;7.50;85.30;;;;;;601809;238;26593;-65
2022/04/09 08:34:37;;;;;;;2.65;1.40;;;7.70;83.90;;;;;;603184;236;26632;-65
2022/04/09 08:37:07;;;;;;;2.45;1.40;;;7.70;83.60;;;;;;607107;236;26860;-65
2022/04/09 08:39:34;;;;;;;4.60;1.95;;;7.60;82.10;;;;;;603558;237;26828;-65
2022/04/09 08:42:01;;;;;;;3.12;1.52;;;7.50;81.60;;;;;;602544;237;26589;-65
2022/04/09 08:44:29;;;;;;;3.33;1.62;;;7.60;82.30;;;;;;604252;237;26847;-64
2022/04/09 08:46:57;;;;;;;3.20;1.55;;;7.80;81.70;;;;;;603928;236;26648;-65
2022/04/09 08:49:25;;;;;;;3.50;1.60;;;7.90;80.70;;;;;;606021;235;26590;-64
2022/04/09 08:51:52;;;;;;;4.78;1.48;;;7.90;80.70;;;;;;604337;236;26644;-65
2022/04/09 08:54:19;;;;;;;2.75;1.10;;;8.10;81.30;;;;;;608781;235;26636;-65
2022/04/09 08:56:49;;;;;;;6.85;1.70;;;7.90;80.70;;;;;;612389;235;26979;-65
2022/04/09 08:59:13;;;;;;;3.12;1.45;;;7.50;80.30;;;;;;606756;234;26606;-66
2022/04/09 09:01:40;;;;;;;3.58;1.40;;;7.70;81.60;;;;;;607059;235;26861;-65
2022/04/09 09:04:08;;;;;;;1.75;1.58;;;7.70;79.60;;;;;;604532;236;26618;-65
2022/04/09 09:06:39;;;;;;;3.75;1.67;;;7.80;79.40;;;;;;605463;236;26669;-66
2022/04/09 09:09:04;;;;;;;6.72;1.62;;;7.80;79.30;;;;;;602703;238;27126;-65
2022/04/09 09:11:31;;;;;;;4.12;1.30;;;8.10;78.20;;;;;;603914;236;26546;-65
2022/04/09 09:13:59;;;;;;;3.72;1.48;;;7.90;77.70;;;;;;603803;235;26947;-65
2022/04/09 09:16:28;;;;;;;8.73;2.37;;;7.90;77.50;;;;;;604789;235;26654;-65
2022/04/09 09:18:56;;;;;;;5.10;1.62;;;8.30;75.30;;;;;;604869;235;26626;-64
2022/04/09 09:21:26;;;;;;;6.12;1.77;;;8.30;74.60;;;;;;608232;234;26602;-65
2022/04/09 09:23:52;;;;;;;10.82;2.08;;;8.10;75.50;;;;;;608037;234;26641;-65
2022/04/09 09:26:21;;;;;;;5.20;1.70;;;8.00;75.40;;;;;;607137;234;26899;-64
2022/04/09 09:28:56;;;;;;;6.43;2.08;;;8.00;73.40;;;;;;604640;234;26885;-65
2022/04/09 09:31:36;;;;;;;5.45;1.75;;;8.00;71.60;;;;;;604204;236;26855;-64
2022/04/09 09:34:03;;;;;;;4.35;1.77;;;8.00;71.60;;;;;;604140;236;26592;-64
2022/04/09 09:36:31;;;;;;;3.00;1.65;;;8.20;71.70;;;;;;602908;238;26997;-65
2022/04/09 09:39:02;;;;;;;5.40;2.08;;;8.40;72.50;;;;;;604518;232;26827;-64
2022/04/09 09:41:29;;;;;;;5.45;1.70;;;8.60;71.40;;;;;;607086;233;26606;-66
2022/04/09 09:44:01;;;;;;;5.05;1.67;;;8.90;69.10;;;;;;603216;237;26855;-64
2022/04/09 09:46:28;;;;;;;4.20;1.90;;;9.00;69.20;;;;;;606939;234;26634;-63
2022/04/09 09:48:55;;;;;;;4.93;1.55;;;9.00;68.40;;;;;;604883;236;26816;-64
2022/04/09 09:51:23;;;;;;;2.33;1.40;;;8.40;66.50;;;;;;603303;238;26591;-63
2022/04/09 09:53:57;;;;;;;4.55;1.52;;;8.60;68.00;;;;;;607192;235;26645;-63
2022/04/09 09:56:32;;;;;;;8.35;2.15;;;8.60;67.90;;;;;;604117;235;26612;-63
2022/04/09 09:59:00;;;;;;;5.80;2.00;;;9.00;67.90;;;;;;604930;234;26871;-63
2022/04/09 10:01:28;;;;;;;4.90;1.65;;;8.90;66.60;;;;;;604977;235;26633;-64
2022/04/09 10:03:55;;;;;;;2.67;1.50;;;8.90;66.60;;;;;;605039;233;26629;-64
2022/04/09 10:06:22;;;;;;;3.03;1.92;;;8.90;65.00;;;;;;606317;235;26646;-64
2022/04/09 10:08:50;;;;;;;10.07;1.85;;;9.10;65.00;;;;;;604669;236;26877;-64
2022/04/09 10:11:17;;;;;;;8.63;2.03;;;9.40;65.50;;;;;;603909;236;26656;-64
2022/04/09 10:13:44;;;;;;;3.55;1.62;;;9.50;65.40;;;;;;606035;235;27360;-64
2022/04/09 10:16:12;;;;;;;4.82;1.87;;;9.30;63.60;;;;;;605805;233;26672;-63
2022/04/09 10:18:40;;;;;;;5.05;1.50;;;9.40;64.40;;;;;;607491;235;26654;-63
2022/04/09 10:21:09;;;;;;;6.95;1.40;;;9.50;63.40;;;;;;603978;236;26900;-63
2022/04/09 10:23:36;;;;;;;3.12;1.50;;;9.60;63.30;;;;;;604068;236;26627;-63
2022/04/09 10:26:04;;;;;;;6.43;2.30;;;9.60;62.50;;;;;;604924;236;26611;-62
2022/04/09 10:28:34;;;;;;;8.30;2.00;;;9.60;62.50;;;;;;607276;235;26691;-63
2022/04/09 10:31:00;;;;;;;53.85;7.12;;;9.70;62.80;;;;;;604232;236;26651;-64
2022/04/09 10:33:28;;;;;;;138.70;18.65;;;9.60;63.40;;;;;;606214;235;27304;-65
2022/04/09 10:36:01;;;;;;;572.92;58.38;;;9.90;64.80;;;;;;603858;237;26620;-66
2022/04/09 10:38:22;;;;;;;1999.90;538.37;;;10.00;61.60;;;;;;603191;237;26590;-64
2022/04/09 10:41:20;;;;;;;1999.90;454.05;;;10.20;62.70;;;;;;606924;234;26841;-64
2022/04/09 10:43:49;;;;;;;81.57;19.33;;;9.70;63.30;;;;;;602524;236;26613;-65
2022/04/09 10:46:20;;;;;;;66.30;17.12;;;9.60;64.10;;;;;;606777;235;26601;-65
2022/04/09 10:48:47;;;;;;;55.15;15.55;;;9.90;66.00;;;;;;603784;235;26593;-69
2022/04/09 10:51:12;;;;;;;38.85;12.80;;;9.90;65.90;;;;;;606567;235;26605;-69
2022/04/09 10:53:40;;;;;;;45.35;13.68;;;10.00;62.80;;;;;;604097;234;26841;-71
2022/04/09 10:56:24;;;;;;;36.58;11.57;;;10.10;62.10;;;;;;605786;235;26620;-70
2022/04/09 10:58:59;;;;;;;42.22;11.15;;;9.90;63.10;;;;;;605937;235;26802;-68
2022/04/09 11:01:37;;;;;;;27.95;9.68;;;9.80;62.80;;;;;;604183;236;26836;-67
2022/04/09 11:04:17;;;;;;;26.50;11.07;;;9.60;64.40;;;;;;606153;235;26581;-70
2022/04/09 11:06:45;;;;;;;26.65;9.20;;;9.60;64.40;;;;;;606783;234;26648;-69
2022/04/09 11:09:13;;;;;;;16.15;7.03;;;10.00;63.70;;;;;;601634;233;26566;-68
2022/04/09 11:11:41;;;;;;;27.62;9.55;;;10.00;63.50;;;;;;606289;236;26622;-68
2022/04/09 11:14:07;;;;;;;24.27;8.43;;;10.10;62.90;;;;;;603484;236;26665;-68
2022/04/09 11:16:36;;;;;;;17.62;6.80;;;10.30;62.90;;;;;;605003;236;26603;-68
2022/04/09 11:19:02;;;;;;;21.08;7.28;;;10.30;62.40;;;;;;607157;236;26579;-68
2022/04/09 11:21:30;;;;;;;12.95;5.68;;;10.00;62.10;;;;;;603075;237;26630;-68
2022/04/09 11:24:03;;;;;;;12.52;5.32;;;10.60;61.10;;;;;;602365;238;26638;-68
2022/04/09 11:26:30;;;;;;;13.27;4.93;;;10.60;60.50;;;;;;608420;235;26630;-68
2022/04/09 11:28:58;;;;;;;9.75;4.32;;;10.50;59.60;;;;;;602387;238;26645;-69
2022/04/09 11:31:26;;;;;;;7.00;4.12;;;10.60;59.80;;;;;;602161;238;26641;-68
2022/04/09 11:33:56;;;;;;;6.60;3.60;;;10.80;59.70;;;;;;603477;238;26821;-68
2022/04/09 11:36:22;;;;;;;7.62;4.10;;;10.70;59.50;;;;;;602209;236;27568;-68
2022/04/09 11:38:50;;;;;;;6.65;3.08;;;10.50;59.00;;;;;;607995;236;26591;-67
2022/04/09 11:41:19;;;;;;;7.60;2.97;;;10.20;58.80;;;;;;601462;232;26851;-68
2022/04/09 11:43:47;;;;;;;4.97;2.72;;;9.90;60.20;;;;;;602423;236;26655;-68
2022/04/09 11:46:14;;;;;;;4.87;2.20;;;9.80;60.10;;;;;;603009;238;26664;-67
2022/04/09 11:48:42;;;;;;;6.28;2.37;;;9.80;60.10;;;;;;604016;235;26941;-67
2022/04/09 11:51:24;;;;;;;7.37;2.30;;;10.10;59.00;;;;;;611624;234;26551;-68
2022/04/09 11:53:52;;;;;;;7.40;1.98;;;10.20;59.20;;;;;;613091;234;26582;-67
2022/04/09 11:56:20;;;;;;;3.22;1.80;;;9.80;61.50;;;;;;606283;235;26600;-66
2022/04/09 11:58:47;;;;;;;5.15;1.73;;;9.80;61.50;;;;;;606404;235;26586;-68
2022/04/09 12:01:14;;;;;;;7.93;1.83;;;9.70;63.00;;;;;;607305;234;26586;-68
2022/04/09 12:03:42;;;;;;;8.48;2.05;;;10.00;63.00;;;;;;603042;238;26592;-67
2022/04/09 12:06:10;;;;;;;7.53;2.05;;;9.90;63.80;;;;;;602957;238;26606;-67
2022/04/09 12:08:38;;;;;;;7.10;2.00;;;9.60;65.30;;;;;;608840;236;26635;-67
2022/04/09 12:11:10;;;;;;;3.50;1.70;;;9.70;65.00;;;;;;602795;236;26813;-67
2022/04/09 12:13:37;;;;;;;9.48;2.08;;;9.70;65.40;;;;;;603151;237;26593;-67
2022/04/09 12:16:19;;;;;;;6.72;1.95;;;9.70;65.20;;;;;;607901;236;26845;-67
2022/04/09 12:18:46;;;;;;;5.80;1.75;;;9.80;63.50;;;;;;610417;235;26590;-66
2022/04/09 12:21:26;;;;;;;10.60;1.75;;;9.60;62.30;;;;;;602778;237;26584;-66
2022/04/09 12:24:01;;;;;;;6.47;1.75;;;9.60;62.40;;;;;;609761;235;26861;-66
2022/04/09 12:26:28;;;;;;;8.38;1.83;;;9.70;63.60;;;;;;605456;234;26593;-66
2022/04/09 12:29:08;;;;;;;7.03;1.77;;;10.00;61.90;;;;;;602698;237;26659;-66
2022/04/09 12:31:36;;;;;;;4.60;1.40;;;10.00;61.90;;;;;;603295;232;26589;-66
2022/04/09 12:34:03;;;;;;;3.83;1.80;;;10.20;62.20;;;;;;607784;236;26568;-67
2022/04/09 12:36:30;;;;;;;2.00;1.40;;;10.20;62.90;;;;;;604636;235;27261;-67
2022/04/09 12:38:58;;;;;;;3.22;1.65;;;10.60;63.20;;;;;;603915;236;26637;-67
2022/04/09 12:41:25;;;;;;;3.92;1.58;;;10.60;62.80;;;;;;609862;236;26589;-67
2022/04/09 12:43:54;;;;;;;8.40;1.98;;;10.40;64.90;;;;;;605558;235;26557;-68
2022/04/09 12:46:21;;;;;;;8.13;1.58;;;10.70;63.90;;;;;;601921;236;26625;-68
2022/04/09 12:48:49;;;;;;;8.80;1.58;;;10.70;63.90;;;;;;602186;238;26649;-68
2022/04/09 12:51:18;;;;;;;15.70;2.42;;;10.50;62.80;;;;;;603291;237;26599;-68
2022/04/09 12:53:45;;;;;;;3.83;1.48;;;10.20;64.40;;;;;;603284;237;26575;-67
2022/04/09 12:56:12;;;;;;;7.18;1.87;;;10.20;64.40;;;;;;611661;232;26650;-67
2022/04/09 12:58:39;;;;;;;7.70;1.60;;;10.10;64.20;;;;;;603409;234;26685;-66